sensor_id;sensor_type;location;lat;lon;timestamp;P1;durP1;ratioP1;P2;durP2;ratioP2
65463;SDS011;52063;45.110;9.870;2022-12-18T00:01:57;20.07;;;13.30;;
65463;SDS011;52063;45.110;9.870;2022-12-18T00:04:24;17.63;;;13.13;;
65463;SDS011;52063;45.110;9.870;2022-12-18T00:06:51;18.65;;;13.40;;
65463;SDS011;52063;45.110;9.870;2022-12-18T00:09:17;17.70;;;12.30;;
65463;SDS011;52063;45.110;9.870;2022-12-18T00:11:42;19.42;;;12.98;;
65463;SDS011;52063;45.110;9.870;2022-12-18T00:14:08;19.57;;;13.97;;
65463;SDS011;52063;45.110;9.870;2022-12-18T00:16:36;20.42;;;13.85;;
65463;SDS011;52063;45.110;9.870;2022-12-18T00:19:02;17.53;;;13.03;;
65463;SDS011;52063;45.110;9.870;2022-12-18T00:21:28;19.20;;;13.75;;
65463;SDS011;52063;45.110;9.870;2022-12-18T00:23:54;19.33;;;13.70;;
65463;SDS011;52063;45.110;9.870;2022-12-18T00:26:22;18.10;;;13.07;;
65463;SDS011;52063;45.110;9.870;2022-12-18T00:28:52;18.97;;;13.20;;
65463;SDS011;52063;45.110;9.870;2022-12-18T00:31:19;19.85;;;13.38;;
65463;SDS011;52063;45.110;9.870;2022-12-18T00:33:46;17.98;;;13.43;;
65463;SDS011;52063;45.110;9.870;2022-12-18T00:36:16;19.80;;;13.15;;
65463;SDS011;52063;45.110;9.870;2022-12-18T00:38:43;20.85;;;13.85;;
65463;SDS011;52063;45.110;9.870;2022-12-18T00:41:09;18.07;;;13.27;;
65463;SDS011;52063;45.110;9.870;2022-12-18T00:43:38;17.77;;;12.50;;
65463;SDS011;52063;45.110;9.870;2022-12-18T00:46:03;19.42;;;13.18;;
65463;SDS011;52063;45.110;9.870;2022-12-18T00:48:30;18.37;;;13.50;;
65463;SDS011;52063;45.110;9.870;2022-12-18T00:50:56;18.92;;;13.63;;
65463;SDS011;52063;45.110;9.870;2022-12-18T00:53:22;18.55;;;13.15;;
65463;SDS011;52063;45.110;9.870;2022-12-18T00:55:47;17.83;;;13.23;;
65463;SDS011;52063;45.110;9.870;2022-12-18T00:58:14;21.20;;;13.77;;
65463;SDS011;52063;45.110;9.870;2022-12-18T01:00:41;18.43;;;13.50;;
65463;SDS011;52063;45.110;9.870;2022-12-18T01:03:10;18.90;;;13.88;;
65463;SDS011;52063;45.110;9.870;2022-12-18T01:05:39;19.20;;;13.93;;
65463;SDS011;52063;45.110;9.870;2022-12-18T01:08:05;18.90;;;13.48;;
65463;SDS011;52063;45.110;9.870;2022-12-18T01:10:31;20.37;;;13.77;;
65463;SDS011;52063;45.110;9.870;2022-12-18T01:12:56;19.00;;;13.90;;
65463;SDS011;52063;45.110;9.870;2022-12-18T01:15:21;17.50;;;13.15;;
65463;SDS011;52063;45.110;9.870;2022-12-18T01:17:47;17.70;;;13.20;;
65463;SDS011;52063;45.110;9.870;2022-12-18T01:20:12;19.53;;;13.10;;
65463;SDS011;52063;45.110;9.870;2022-12-18T01:22:38;18.23;;;14.38;;
65463;SDS011;52063;45.110;9.870;2022-12-18T01:25:06;20.05;;;13.80;;
65463;SDS011;52063;45.110;9.870;2022-12-18T01:27:33;18.63;;;13.53;;
65463;SDS011;52063;45.110;9.870;2022-12-18T01:29:59;19.17;;;12.98;;
65463;SDS011;52063;45.110;9.870;2022-12-18T01:32:25;17.88;;;13.55;;
65463;SDS011;52063;45.110;9.870;2022-12-18T01:34:50;18.93;;;13.87;;
65463;SDS011;52063;45.110;9.870;2022-12-18T01:37:16;17.50;;;13.03;;
65463;SDS011;52063;45.110;9.870;2022-12-18T01:39:41;19.05;;;13.00;;
65463;SDS011;52063;45.110;9.870;2022-12-18T01:42:11;17.07;;;12.50;;
65463;SDS011;52063;45.110;9.870;2022-12-18T01:50:03;18.33;;;13.50;;
65463;SDS011;52063;45.110;9.870;2022-12-18T01:52:33;16.90;;;12.43;;
65463;SDS011;52063;45.110;9.870;2022-12-18T01:55:00;17.48;;;12.63;;
65463;SDS011;52063;45.110;9.870;2022-12-18T01:57:28;18.55;;;12.68;;
65463;SDS011;52063;45.110;9.870;2022-12-18T01:59:56;19.13;;;12.07;;
65463;SDS011;52063;45.110;9.870;2022-12-18T02:02:24;17.03;;;12.47;;
65463;SDS011;52063;45.110;9.870;2022-12-18T02:04:51;16.83;;;12.00;;
65463;SDS011;52063;45.110;9.870;2022-12-18T02:07:25;17.08;;;12.35;;
65463;SDS011;52063;45.110;9.870;2022-12-18T02:18:12;17.13;;;12.02;;
65463;SDS011;52063;45.110;9.870;2022-12-18T02:23:14;17.03;;;12.13;;
65463;SDS011;52063;45.110;9.870;2022-12-18T02:25:59;14.60;;;11.43;;
65463;SDS011;52063;45.110;9.870;2022-12-18T02:28:31;16.10;;;11.85;;
65463;SDS011;52063;45.110;9.870;2022-12-18T02:31:03;15.68;;;11.10;;
65463;SDS011;52063;45.110;9.870;2022-12-18T02:33:30;16.80;;;11.90;;
65463;SDS011;52063;45.110;9.870;2022-12-18T02:35:57;15.23;;;11.40;;
65463;SDS011;52063;45.110;9.870;2022-12-18T02:38:24;16.25;;;12.13;;
65463;SDS011;52063;45.110;9.870;2022-12-18T02:40:51;15.35;;;11.05;;
65463;SDS011;52063;45.110;9.870;2022-12-18T02:43:18;18.52;;;12.20;;
65463;SDS011;52063;45.110;9.870;2022-12-18T02:45:54;16.63;;;12.20;;
65463;SDS011;52063;45.110;9.870;2022-12-18T02:48:26;15.90;;;12.13;;
65463;SDS011;52063;45.110;9.870;2022-12-18T02:53:58;15.30;;;10.98;;
65463;SDS011;52063;45.110;9.870;2022-12-18T02:56:29;14.15;;;11.07;;
65463;SDS011;52063;45.110;9.870;2022-12-18T02:59:06;15.67;;;11.23;;
65463;SDS011;52063;45.110;9.870;2022-12-18T03:04:34;13.20;;;10.38;;
65463;SDS011;52063;45.110;9.870;2022-12-18T03:07:10;14.80;;;11.18;;
65463;SDS011;52063;45.110;9.870;2022-12-18T03:09:40;14.98;;;11.50;;
65463;SDS011;52063;45.110;9.870;2022-12-18T03:12:15;15.37;;;10.90;;
65463;SDS011;52063;45.110;9.870;2022-12-18T03:14:57;14.88;;;10.38;;
65463;SDS011;52063;45.110;9.870;2022-12-18T03:17:26;14.85;;;10.98;;
65463;SDS011;52063;45.110;9.870;2022-12-18T03:19:53;16.85;;;11.40;;
65463;SDS011;52063;45.110;9.870;2022-12-18T03:22:20;14.73;;;10.45;;
65463;SDS011;52063;45.110;9.870;2022-12-18T03:24:49;14.50;;;10.93;;
65463;SDS011;52063;45.110;9.870;2022-12-18T03:27:17;15.10;;;10.80;;
65463;SDS011;52063;45.110;9.870;2022-12-18T03:29:45;12.98;;;9.98;;
65463;SDS011;52063;45.110;9.870;2022-12-18T03:32:20;15.27;;;10.82;;
65463;SDS011;52063;45.110;9.870;2022-12-18T03:34:51;13.93;;;10.32;;
65463;SDS011;52063;45.110;9.870;2022-12-18T03:37:20;14.93;;;10.30;;
65463;SDS011;52063;45.110;9.870;2022-12-18T03:39:46;14.60;;;10.20;;
65463;SDS011;52063;45.110;9.870;2022-12-18T03:45:11;16.17;;;10.50;;
65463;SDS011;52063;45.110;9.870;2022-12-18T03:48:07;13.85;;;10.50;;
65463;SDS011;52063;45.110;9.870;2022-12-18T03:50:48;12.38;;;9.57;;
65463;SDS011;52063;45.110;9.870;2022-12-18T03:56:10;15.57;;;10.38;;
65463;SDS011;52063;45.110;9.870;2022-12-18T03:58:40;14.20;;;9.93;;
65463;SDS011;52063;45.110;9.870;2022-12-18T04:01:15;13.35;;;9.45;;
65463;SDS011;52063;45.110;9.870;2022-12-18T04:03:42;12.88;;;10.05;;
65463;SDS011;52063;45.110;9.870;2022-12-18T04:06:10;14.10;;;10.32;;
65463;SDS011;52063;45.110;9.870;2022-12-18T04:08:38;16.02;;;10.38;;
65463;SDS011;52063;45.110;9.870;2022-12-18T04:11:08;13.70;;;9.73;;
65463;SDS011;52063;45.110;9.870;2022-12-18T04:13:36;14.07;;;10.65;;
65463;SDS011;52063;45.110;9.870;2022-12-18T04:16:06;12.77;;;10.00;;
65463;SDS011;52063;45.110;9.870;2022-12-18T04:18:32;13.35;;;10.05;;
65463;SDS011;52063;45.110;9.870;2022-12-18T04:20:59;13.00;;;9.82;;
65463;SDS011;52063;45.110;9.870;2022-12-18T04:23:25;13.17;;;10.07;;
65463;SDS011;52063;45.110;9.870;2022-12-18T04:25:54;13.50;;;10.65;;
65463;SDS011;52063;45.110;9.870;2022-12-18T04:28:34;13.45;;;10.00;;
65463;SDS011;52063;45.110;9.870;2022-12-18T04:31:00;14.30;;;10.53;;
65463;SDS011;52063;45.110;9.870;2022-12-18T04:33:26;13.05;;;10.40;;
65463;SDS011;52063;45.110;9.870;2022-12-18T04:35:52;12.63;;;10.27;;
65463;SDS011;52063;45.110;9.870;2022-12-18T04:38:17;13.10;;;10.53;;
65463;SDS011;52063;45.110;9.870;2022-12-18T04:40:45;13.25;;;10.40;;
65463;SDS011;52063;45.110;9.870;2022-12-18T04:43:19;13.00;;;10.38;;
65463;SDS011;52063;45.110;9.870;2022-12-18T04:45:45;12.23;;;9.77;;
65463;SDS011;52063;45.110;9.870;2022-12-18T04:48:10;13.33;;;9.90;;
65463;SDS011;52063;45.110;9.870;2022-12-18T04:50:36;12.63;;;9.95;;
65463;SDS011;52063;45.110;9.870;2022-12-18T04:53:01;12.67;;;10.23;;
65463;SDS011;52063;45.110;9.870;2022-12-18T04:55:27;12.97;;;9.77;;
65463;SDS011;52063;45.110;9.870;2022-12-18T04:57:53;13.10;;;10.47;;
65463;SDS011;52063;45.110;9.870;2022-12-18T05:00:18;13.98;;;10.45;;
65463;SDS011;52063;45.110;9.870;2022-12-18T05:02:44;12.20;;;10.00;;
65463;SDS011;52063;45.110;9.870;2022-12-18T05:05:10;12.75;;;10.00;;
65463;SDS011;52063;45.110;9.870;2022-12-18T05:07:35;13.10;;;9.60;;
65463;SDS011;52063;45.110;9.870;2022-12-18T05:10:01;13.30;;;10.48;;
65463;SDS011;52063;45.110;9.870;2022-12-18T05:12:27;12.70;;;10.10;;
65463;SDS011;52063;45.110;9.870;2022-12-18T05:14:52;13.57;;;10.13;;
65463;SDS011;52063;45.110;9.870;2022-12-18T05:17:18;11.40;;;9.20;;
65463;SDS011;52063;45.110;9.870;2022-12-18T05:19:43;12.30;;;9.67;;
65463;SDS011;52063;45.110;9.870;2022-12-18T05:22:09;12.45;;;10.02;;
65463;SDS011;52063;45.110;9.870;2022-12-18T05:24:34;13.20;;;9.60;;
65463;SDS011;52063;45.110;9.870;2022-12-18T05:27:00;12.90;;;10.40;;
65463;SDS011;52063;45.110;9.870;2022-12-18T05:29:25;11.32;;;9.27;;
65463;SDS011;52063;45.110;9.870;2022-12-18T05:31:51;11.90;;;10.07;;
65463;SDS011;52063;45.110;9.870;2022-12-18T05:34:16;13.38;;;10.07;;
65463;SDS011;52063;45.110;9.870;2022-12-18T05:36:42;14.13;;;9.47;;
65463;SDS011;52063;45.110;9.870;2022-12-18T05:39:08;12.75;;;9.30;;
65463;SDS011;52063;45.110;9.870;2022-12-18T05:41:34;11.13;;;9.07;;
65463;SDS011;52063;45.110;9.870;2022-12-18T05:43:59;11.20;;;8.88;;
65463;SDS011;52063;45.110;9.870;2022-12-18T05:46:25;13.23;;;9.43;;
65463;SDS011;52063;45.110;9.870;2022-12-18T05:48:51;11.10;;;8.90;;
65463;SDS011;52063;45.110;9.870;2022-12-18T05:51:17;10.82;;;9.05;;
65463;SDS011;52063;45.110;9.870;2022-12-18T05:53:44;12.10;;;9.45;;
65463;SDS011;52063;45.110;9.870;2022-12-18T05:56:11;13.27;;;9.23;;
65463;SDS011;52063;45.110;9.870;2022-12-18T05:58:38;11.90;;;8.55;;
65463;SDS011;52063;45.110;9.870;2022-12-18T06:01:08;10.20;;;7.93;;
65463;SDS011;52063;45.110;9.870;2022-12-18T06:03:38;10.85;;;8.40;;
65463;SDS011;52063;45.110;9.870;2022-12-18T06:06:04;10.70;;;8.83;;
65463;SDS011;52063;45.110;9.870;2022-12-18T06:08:38;10.90;;;8.40;;
65463;SDS011;52063;45.110;9.870;2022-12-18T06:11:04;12.80;;;8.63;;
65463;SDS011;52063;45.110;9.870;2022-12-18T06:13:30;13.10;;;9.20;;
65463;SDS011;52063;45.110;9.870;2022-12-18T06:15:55;11.83;;;8.70;;
65463;SDS011;52063;45.110;9.870;2022-12-18T06:18:21;10.70;;;8.68;;
65463;SDS011;52063;45.110;9.870;2022-12-18T06:20:53;10.60;;;8.00;;
65463;SDS011;52063;45.110;9.870;2022-12-18T06:23:22;11.05;;;8.15;;
65463;SDS011;52063;45.110;9.870;2022-12-18T06:25:48;11.73;;;8.80;;
65463;SDS011;52063;45.110;9.870;2022-12-18T06:28:13;11.13;;;8.80;;
65463;SDS011;52063;45.110;9.870;2022-12-18T06:30:39;11.53;;;8.80;;
65463;SDS011;52063;45.110;9.870;2022-12-18T06:33:04;9.80;;;7.73;;
65463;SDS011;52063;45.110;9.870;2022-12-18T06:35:31;10.60;;;8.43;;
65463;SDS011;52063;45.110;9.870;2022-12-18T06:37:57;9.17;;;7.37;;
65463;SDS011;52063;45.110;9.870;2022-12-18T06:40:22;10.90;;;8.27;;
65463;SDS011;52063;45.110;9.870;2022-12-18T06:42:48;11.53;;;8.00;;
65463;SDS011;52063;45.110;9.870;2022-12-18T06:45:15;11.10;;;8.00;;
65463;SDS011;52063;45.110;9.870;2022-12-18T06:47:40;9.68;;;8.10;;
65463;SDS011;52063;45.110;9.870;2022-12-18T06:50:06;12.57;;;7.90;;
65463;SDS011;52063;45.110;9.870;2022-12-18T06:52:32;9.73;;;7.55;;
65463;SDS011;52063;45.110;9.870;2022-12-18T06:54:58;11.30;;;7.72;;
65463;SDS011;52063;45.110;9.870;2022-12-18T06:57:24;9.67;;;7.67;;
65463;SDS011;52063;45.110;9.870;2022-12-18T06:59:49;8.85;;;7.50;;
65463;SDS011;52063;45.110;9.870;2022-12-18T07:02:15;8.30;;;6.93;;
65463;SDS011;52063;45.110;9.870;2022-12-18T07:04:40;8.63;;;6.87;;
65463;SDS011;52063;45.110;9.870;2022-12-18T07:07:06;8.70;;;6.75;;
65463;SDS011;52063;45.110;9.870;2022-12-18T07:09:31;8.93;;;6.83;;
65463;SDS011;52063;45.110;9.870;2022-12-18T07:11:56;8.10;;;6.77;;
65463;SDS011;52063;45.110;9.870;2022-12-18T07:14:22;7.73;;;6.40;;
65463;SDS011;52063;45.110;9.870;2022-12-18T07:16:47;7.07;;;6.20;;
65463;SDS011;52063;45.110;9.870;2022-12-18T07:19:13;7.83;;;6.73;;
65463;SDS011;52063;45.110;9.870;2022-12-18T07:21:39;8.20;;;6.47;;
65463;SDS011;52063;45.110;9.870;2022-12-18T07:24:04;7.00;;;5.77;;
65463;SDS011;52063;45.110;9.870;2022-12-18T07:26:30;8.20;;;6.35;;
65463;SDS011;52063;45.110;9.870;2022-12-18T07:28:56;8.10;;;6.27;;
65463;SDS011;52063;45.110;9.870;2022-12-18T07:31:22;7.72;;;6.40;;
65463;SDS011;52063;45.110;9.870;2022-12-18T07:33:48;7.97;;;6.20;;
65463;SDS011;52063;45.110;9.870;2022-12-18T07:36:14;8.32;;;6.50;;
65463;SDS011;52063;45.110;9.870;2022-12-18T07:38:40;7.43;;;6.22;;
65463;SDS011;52063;45.110;9.870;2022-12-18T07:41:10;6.93;;;6.23;;
65463;SDS011;52063;45.110;9.870;2022-12-18T07:43:37;7.32;;;6.10;;
65463;SDS011;52063;45.110;9.870;2022-12-18T07:46:03;7.85;;;6.30;;
65463;SDS011;52063;45.110;9.870;2022-12-18T07:48:29;8.57;;;6.90;;
65463;SDS011;52063;45.110;9.870;2022-12-18T07:51:01;9.30;;;7.53;;
65463;SDS011;52063;45.110;9.870;2022-12-18T07:53:27;8.23;;;6.50;;
65463;SDS011;52063;45.110;9.870;2022-12-18T07:56:00;7.77;;;6.47;;
65463;SDS011;52063;45.110;9.870;2022-12-18T07:58:32;7.63;;;6.18;;
65463;SDS011;52063;45.110;9.870;2022-12-18T08:01:08;7.95;;;6.07;;
65463;SDS011;52063;45.110;9.870;2022-12-18T08:03:35;7.20;;;6.38;;
65463;SDS011;52063;45.110;9.870;2022-12-18T08:06:01;8.07;;;6.40;;
65463;SDS011;52063;45.110;9.870;2022-12-18T08:08:28;6.93;;;6.23;;
65463;SDS011;52063;45.110;9.870;2022-12-18T08:10:53;8.73;;;6.53;;
65463;SDS011;52063;45.110;9.870;2022-12-18T08:13:19;7.70;;;6.13;;
65463;SDS011;52063;45.110;9.870;2022-12-18T08:15:45;9.07;;;6.63;;
65463;SDS011;52063;45.110;9.870;2022-12-18T08:18:10;7.40;;;6.40;;
65463;SDS011;52063;45.110;9.870;2022-12-18T08:20:36;7.32;;;6.03;;
65463;SDS011;52063;45.110;9.870;2022-12-18T08:23:01;9.33;;;6.70;;
65463;SDS011;52063;45.110;9.870;2022-12-18T08:25:27;9.43;;;6.40;;
65463;SDS011;52063;45.110;9.870;2022-12-18T08:27:52;7.43;;;6.38;;
65463;SDS011;52063;45.110;9.870;2022-12-18T08:30:18;6.67;;;5.53;;
65463;SDS011;52063;45.110;9.870;2022-12-18T08:32:43;9.57;;;6.57;;
65463;SDS011;52063;45.110;9.870;2022-12-18T08:35:09;8.73;;;6.55;;
65463;SDS011;52063;45.110;9.870;2022-12-18T08:37:36;6.97;;;5.87;;
65463;SDS011;52063;45.110;9.870;2022-12-18T08:40:02;9.20;;;6.57;;
65463;SDS011;52063;45.110;9.870;2022-12-18T08:42:27;8.20;;;5.50;;
65463;SDS011;52063;45.110;9.870;2022-12-18T08:45:11;6.90;;;5.70;;
65463;SDS011;52063;45.110;9.870;2022-12-18T08:47:37;9.57;;;6.40;;
65463;SDS011;52063;45.110;9.870;2022-12-18T08:50:02;7.73;;;5.70;;
65463;SDS011;52063;45.110;9.870;2022-12-18T08:52:28;7.10;;;6.40;;
65463;SDS011;52063;45.110;9.870;2022-12-18T08:54:53;9.02;;;6.25;;
65463;SDS011;52063;45.110;9.870;2022-12-18T08:57:19;7.97;;;6.40;;
65463;SDS011;52063;45.110;9.870;2022-12-18T08:59:44;7.80;;;6.30;;
65463;SDS011;52063;45.110;9.870;2022-12-18T09:02:10;8.00;;;6.30;;
65463;SDS011;52063;45.110;9.870;2022-12-18T09:04:36;7.80;;;6.03;;
65463;SDS011;52063;45.110;9.870;2022-12-18T09:07:02;6.90;;;5.90;;
65463;SDS011;52063;45.110;9.870;2022-12-18T09:09:27;8.00;;;5.80;;
65463;SDS011;52063;45.110;9.870;2022-12-18T09:11:52;7.80;;;6.17;;
65463;SDS011;52063;45.110;9.870;2022-12-18T09:14:18;6.70;;;5.93;;
65463;SDS011;52063;45.110;9.870;2022-12-18T09:16:43;7.32;;;6.35;;
65463;SDS011;52063;45.110;9.870;2022-12-18T09:19:09;7.50;;;6.23;;
65463;SDS011;52063;45.110;9.870;2022-12-18T09:21:35;7.45;;;5.78;;
65463;SDS011;52063;45.110;9.870;2022-12-18T09:24:01;8.00;;;6.20;;
65463;SDS011;52063;45.110;9.870;2022-12-18T09:26:26;8.00;;;6.25;;
65463;SDS011;52063;45.110;9.870;2022-12-18T09:28:52;8.03;;;6.50;;
65463;SDS011;52063;45.110;9.870;2022-12-18T09:31:18;7.03;;;5.78;;
65463;SDS011;52063;45.110;9.870;2022-12-18T09:33:46;8.38;;;6.40;;
65463;SDS011;52063;45.110;9.870;2022-12-18T09:36:12;6.73;;;6.03;;
65463;SDS011;52063;45.110;9.870;2022-12-18T09:38:39;7.40;;;6.40;;
65463;SDS011;52063;45.110;9.870;2022-12-18T09:41:06;7.90;;;6.33;;
65463;SDS011;52063;45.110;9.870;2022-12-18T09:43:42;8.18;;;5.82;;
65463;SDS011;52063;45.110;9.870;2022-12-18T09:46:14;7.32;;;6.32;;
65463;SDS011;52063;45.110;9.870;2022-12-18T09:48:42;7.47;;;5.90;;
65463;SDS011;52063;45.110;9.870;2022-12-18T09:51:21;6.75;;;5.70;;
65463;SDS011;52063;45.110;9.870;2022-12-18T09:53:54;8.02;;;6.18;;
65463;SDS011;52063;45.110;9.870;2022-12-18T09:56:22;7.03;;;5.65;;
65463;SDS011;52063;45.110;9.870;2022-12-18T09:58:53;7.45;;;6.22;;
65463;SDS011;52063;45.110;9.870;2022-12-18T10:01:21;7.97;;;6.20;;
65463;SDS011;52063;45.110;9.870;2022-12-18T10:03:47;6.68;;;5.63;;
65463;SDS011;52063;45.110;9.870;2022-12-18T10:06:15;6.90;;;5.90;;
65463;SDS011;52063;45.110;9.870;2022-12-18T10:24:28;7.03;;;6.25;;
65463;SDS011;52063;45.110;9.870;2022-12-18T10:27:04;6.80;;;5.50;;
65463;SDS011;52063;45.110;9.870;2022-12-18T10:29:40;7.70;;;6.38;;
65463;SDS011;52063;45.110;9.870;2022-12-18T10:32:07;6.78;;;6.07;;
65463;SDS011;52063;45.110;9.870;2022-12-18T10:34:38;7.45;;;6.22;;
65463;SDS011;52063;45.110;9.870;2022-12-18T10:37:03;6.80;;;5.90;;
65463;SDS011;52063;45.110;9.870;2022-12-18T10:39:31;7.55;;;5.72;;
65463;SDS011;52063;45.110;9.870;2022-12-18T10:45:05;8.88;;;6.80;;
65463;SDS011;52063;45.110;9.870;2022-12-18T10:47:34;6.75;;;6.05;;
65463;SDS011;52063;45.110;9.870;2022-12-18T10:50:00;6.57;;;5.50;;
65463;SDS011;52063;45.110;9.870;2022-12-18T10:52:26;7.05;;;5.80;;
65463;SDS011;52063;45.110;9.870;2022-12-18T10:54:57;7.23;;;6.07;;
65463;SDS011;52063;45.110;9.870;2022-12-18T10:57:31;7.05;;;6.10;;
65463;SDS011;52063;45.110;9.870;2022-12-18T10:59:58;7.80;;;6.53;;
65463;SDS011;52063;45.110;9.870;2022-12-18T11:04:58;7.68;;;6.28;;
65463;SDS011;52063;45.110;9.870;2022-12-18T11:07:24;8.50;;;6.27;;
65463;SDS011;52063;45.110;9.870;2022-12-18T11:09:59;7.17;;;6.30;;
65463;SDS011;52063;45.110;9.870;2022-12-18T11:12:25;12.85;;;8.55;;
65463;SDS011;52063;45.110;9.870;2022-12-18T11:14:53;38.13;;;17.30;;
65463;SDS011;52063;45.110;9.870;2022-12-18T11:20:04;63.77;;;28.37;;
65463;SDS011;52063;45.110;9.870;2022-12-18T11:22:33;68.68;;;30.23;;
65463;SDS011;52063;45.110;9.870;2022-12-18T11:25:00;69.15;;;30.83;;
65463;SDS011;52063;45.110;9.870;2022-12-18T11:27:47;66.70;;;29.92;;
65463;SDS011;52063;45.110;9.870;2022-12-18T11:32:48;68.13;;;32.57;;
65463;SDS011;52063;45.110;9.870;2022-12-18T11:35:17;63.45;;;30.67;;
65463;SDS011;52063;45.110;9.870;2022-12-18T11:37:47;60.22;;;28.95;;
65463;SDS011;52063;45.110;9.870;2022-12-18T11:40:27;66.00;;;30.10;;
65463;SDS011;52063;45.110;9.870;2022-12-18T11:43:02;61.03;;;28.63;;
65463;SDS011;52063;45.110;9.870;2022-12-18T11:45:34;50.13;;;26.27;;
65463;SDS011;52063;45.110;9.870;2022-12-18T11:48:14;54.78;;;26.90;;
65463;SDS011;52063;45.110;9.870;2022-12-18T11:50:48;50.80;;;26.00;;
65463;SDS011;52063;45.110;9.870;2022-12-18T11:53:16;44.75;;;24.65;;
65463;SDS011;52063;45.110;9.870;2022-12-18T11:58:41;42.53;;;24.13;;
65463;SDS011;52063;45.110;9.870;2022-12-18T12:12:22;38.55;;;22.08;;
65463;SDS011;52063;45.110;9.870;2022-12-18T12:20:39;35.10;;;20.27;;
65463;SDS011;52063;45.110;9.870;2022-12-18T12:37:19;28.33;;;19.67;;
65463;SDS011;52063;45.110;9.870;2022-12-18T12:39:50;29.30;;;19.10;;
65463;SDS011;52063;45.110;9.870;2022-12-18T12:42:31;28.75;;;18.55;;
65463;SDS011;52063;45.110;9.870;2022-12-18T12:45:20;29.60;;;19.45;;
65463;SDS011;52063;45.110;9.870;2022-12-18T12:47:48;29.05;;;19.20;;
65463;SDS011;52063;45.110;9.870;2022-12-18T12:50:16;29.57;;;19.43;;
65463;SDS011;52063;45.110;9.870;2022-12-18T12:52:50;31.60;;;20.30;;
65463;SDS011;52063;45.110;9.870;2022-12-18T12:55:19;30.85;;;18.90;;
65463;SDS011;52063;45.110;9.870;2022-12-18T12:58:05;27.00;;;18.88;;
65463;SDS011;52063;45.110;9.870;2022-12-18T13:00:38;28.50;;;19.33;;
65463;SDS011;52063;45.110;9.870;2022-12-18T13:03:08;27.87;;;18.17;;
65463;SDS011;52063;45.110;9.870;2022-12-18T13:08:30;31.23;;;18.45;;
65463;SDS011;52063;45.110;9.870;2022-12-18T13:10:57;27.38;;;18.80;;
65463;SDS011;52063;45.110;9.870;2022-12-18T13:13:53;27.80;;;18.70;;
65463;SDS011;52063;45.110;9.870;2022-12-18T13:16:23;31.43;;;18.90;;
65463;SDS011;52063;45.110;9.870;2022-12-18T13:18:50;29.38;;;18.73;;
65463;SDS011;52063;45.110;9.870;2022-12-18T13:21:24;27.33;;;19.05;;
65463;SDS011;52063;45.110;9.870;2022-12-18T13:23:52;29.35;;;19.00;;
65463;SDS011;52063;45.110;9.870;2022-12-18T13:28:55;29.75;;;18.10;;
65463;SDS011;52063;45.110;9.870;2022-12-18T13:34:21;26.38;;;17.73;;
65463;SDS011;52063;45.110;9.870;2022-12-18T13:36:47;31.05;;;19.58;;
65463;SDS011;52063;45.110;9.870;2022-12-18T13:41:38;27.95;;;17.88;;
65463;SDS011;52063;45.110;9.870;2022-12-18T13:46:59;30.80;;;19.55;;
65463;SDS011;52063;45.110;9.870;2022-12-18T13:52:00;30.67;;;20.20;;
65463;SDS011;52063;45.110;9.870;2022-12-18T13:57:27;29.48;;;19.42;;
65463;SDS011;52063;45.110;9.870;2022-12-18T13:59:54;33.30;;;20.50;;
65463;SDS011;52063;45.110;9.870;2022-12-18T14:02:23;32.10;;;20.17;;
65463;SDS011;52063;45.110;9.870;2022-12-18T14:04:51;31.43;;;20.47;;
65463;SDS011;52063;45.110;9.870;2022-12-18T14:07:18;31.80;;;20.02;;
65463;SDS011;52063;45.110;9.870;2022-12-18T14:09:46;29.60;;;20.60;;
65463;SDS011;52063;45.110;9.870;2022-12-18T14:12:14;33.05;;;19.77;;
65463;SDS011;52063;45.110;9.870;2022-12-18T14:15:02;32.83;;;20.02;;
65463;SDS011;52063;45.110;9.870;2022-12-18T14:17:28;29.13;;;19.20;;
65463;SDS011;52063;45.110;9.870;2022-12-18T14:19:54;34.28;;;19.65;;
65463;SDS011;52063;45.110;9.870;2022-12-18T14:22:28;29.33;;;19.37;;
65463;SDS011;52063;45.110;9.870;2022-12-18T14:27:57;28.98;;;17.85;;
65463;SDS011;52063;45.110;9.870;2022-12-18T14:30:37;30.27;;;17.30;;
65463;SDS011;52063;45.110;9.870;2022-12-18T14:33:36;22.67;;;15.20;;
65463;SDS011;52063;45.110;9.870;2022-12-18T14:36:02;23.45;;;15.13;;
65463;SDS011;52063;45.110;9.870;2022-12-18T14:43:39;21.37;;;14.17;;
65463;SDS011;52063;45.110;9.870;2022-12-18T14:49:00;17.55;;;11.73;;
65463;SDS011;52063;45.110;9.870;2022-12-18T14:51:31;16.90;;;11.40;;
65463;SDS011;52063;45.110;9.870;2022-12-18T14:53:58;16.67;;;10.75;;
65463;SDS011;52063;45.110;9.870;2022-12-18T14:56:29;15.43;;;11.30;;
65463;SDS011;52063;45.110;9.870;2022-12-18T14:58:56;17.40;;;9.90;;
65463;SDS011;52063;45.110;9.870;2022-12-18T15:01:25;14.07;;;9.67;;
65463;SDS011;52063;45.110;9.870;2022-12-18T15:03:51;12.68;;;9.57;;
65463;SDS011;52063;45.110;9.870;2022-12-18T15:06:28;14.48;;;9.05;;
65463;SDS011;52063;45.110;9.870;2022-12-18T15:08:56;13.95;;;9.30;;
65463;SDS011;52063;45.110;9.870;2022-12-18T15:11:26;12.18;;;8.68;;
65463;SDS011;52063;45.110;9.870;2022-12-18T15:14:21;11.97;;;8.13;;
65463;SDS011;52063;45.110;9.870;2022-12-18T15:16:54;9.75;;;7.65;;
65463;SDS011;52063;45.110;9.870;2022-12-18T15:19:20;11.32;;;8.23;;
65463;SDS011;52063;45.110;9.870;2022-12-18T15:21:46;11.65;;;7.70;;
65463;SDS011;52063;45.110;9.870;2022-12-18T15:24:16;10.93;;;7.00;;
65463;SDS011;52063;45.110;9.870;2022-12-18T15:26:43;9.60;;;7.22;;
65463;SDS011;52063;45.110;9.870;2022-12-18T15:29:18;10.00;;;7.50;;
65463;SDS011;52063;45.110;9.870;2022-12-18T15:31:57;10.13;;;6.85;;
65463;SDS011;52063;45.110;9.870;2022-12-18T15:34:27;9.43;;;6.38;;
65463;SDS011;52063;45.110;9.870;2022-12-18T15:36:53;9.65;;;7.00;;
65463;SDS011;52063;45.110;9.870;2022-12-18T15:39:18;10.03;;;6.57;;
65463;SDS011;52063;45.110;9.870;2022-12-18T15:41:44;8.90;;;5.93;;
65463;SDS011;52063;45.110;9.870;2022-12-18T15:44:29;8.73;;;6.20;;
65463;SDS011;52063;45.110;9.870;2022-12-18T15:46:55;7.53;;;6.70;;
65463;SDS011;52063;45.110;9.870;2022-12-18T15:49:20;7.70;;;6.32;;
65463;SDS011;52063;45.110;9.870;2022-12-18T15:51:46;10.57;;;6.50;;
65463;SDS011;52063;45.110;9.870;2022-12-18T15:54:16;8.30;;;6.50;;
65463;SDS011;52063;45.110;9.870;2022-12-18T15:56:42;9.40;;;6.70;;
65463;SDS011;52063;45.110;9.870;2022-12-18T15:59:26;8.95;;;7.22;;
65463;SDS011;52063;45.110;9.870;2022-12-18T16:01:51;14.40;;;7.60;;
65463;SDS011;52063;45.110;9.870;2022-12-18T16:04:21;10.15;;;7.85;;
65463;SDS011;52063;45.110;9.870;2022-12-18T16:06:47;12.52;;;8.63;;
65463;SDS011;52063;45.110;9.870;2022-12-18T16:09:13;12.73;;;9.35;;
65463;SDS011;52063;45.110;9.870;2022-12-18T16:11:39;13.73;;;9.33;;
65463;SDS011;52063;45.110;9.870;2022-12-18T16:14:12;13.23;;;9.68;;
65463;SDS011;52063;45.110;9.870;2022-12-18T16:16:40;14.38;;;9.23;;
65463;SDS011;52063;45.110;9.870;2022-12-18T16:19:06;15.32;;;10.25;;
65463;SDS011;52063;45.110;9.870;2022-12-18T16:21:32;13.93;;;8.77;;
65463;SDS011;52063;45.110;9.870;2022-12-18T16:23:57;15.80;;;9.90;;
65463;SDS011;52063;45.110;9.870;2022-12-18T16:26:23;14.43;;;9.63;;
65463;SDS011;52063;45.110;9.870;2022-12-18T16:28:48;12.43;;;9.03;;
65463;SDS011;52063;45.110;9.870;2022-12-18T16:31:14;13.53;;;9.10;;
65463;SDS011;52063;45.110;9.870;2022-12-18T16:33:39;15.65;;;10.00;;
65463;SDS011;52063;45.110;9.870;2022-12-18T16:36:05;15.87;;;9.60;;
65463;SDS011;52063;45.110;9.870;2022-12-18T16:38:31;17.98;;;9.35;;
65463;SDS011;52063;45.110;9.870;2022-12-18T16:40:56;13.37;;;9.23;;